Green Island — CRYK — position and weather

sailwx.info

Track history (hours):
 
Tides Stations Pressure Air Temp Water Temp Dewpoint Dewpoint depression Visibility Wind Speed Wind Dir Waves Ship positions

Green Island

Last reported at 2014-Jul-11 07:32 UTC. Time now 2014-Jul-11 08:00 UTC.
Position N 40°56' E 024°29'.

Length 126 m; draft 7.7 m.

Type: Cargo ship. MMSI: 255790000.

Date/timePositionNaut miles runAvg speedWind from/ knotsBaromVisibWave heightAir tempDewpointWater temp
2014-Jul-11 07:32N 40°56' E 024°29'0 0.0
2014-Jul-11 06:29N 40°56' E 024°29'0 0.0
2014-Jul-11 05:32N 40°56' E 024°29'0 0.0
2014-Jul-11 04:32N 40°56' E 024°29'0 0.0
2014-Jul-11 03:32N 40°56' E 024°29'0 0.0
2014-Jul-11 02:32N 40°56' E 024°29'0 0.0
2014-Jul-11 01:32N 40°56' E 024°29'0 0.1
2014-Jul-11 00:32N 40°56' E 024°29'0 0.0
2014-Jul-10 23:32N 40°56' E 024°29'0 0.0
2014-Jul-10 22:32N 40°56' E 024°29'0 0.0
2014-Jul-10 21:32N 40°56' E 024°29'0 0.0
2014-Jul-10 20:32N 40°56' E 024°29'0 0.0
2014-Jul-10 19:32N 40°56' E 024°29'0 0.0
2014-Jul-10 18:32N 40°56' E 024°29'0 0.0
2014-Jul-10 17:32N 40°56' E 024°29'0 0.0
2014-Jul-10 16:32N 40°56' E 024°29'0 0.0
2014-Jul-10 15:32N 40°56' E 024°29'0 0.0
2014-Jul-10 14:32N 40°56' E 024°29'0 0.0
2014-Jul-10 13:32N 40°56' E 024°29'0 0.0
2014-Jul-10 12:32N 40°56' E 024°29'0 0.0
2014-Jul-10 11:32N 40°56' E 024°29'0 0.1
2014-Jul-10 10:29N 40°56' E 024°29'7 7.6
2014-Jul-10 09:33N 40°49' E 024°27'1312.9
2014-Jul-10 08:33N 40°36' E 024°26'1312.7
2014-Jul-10 07:30N 40°23' E 024°28'1212.8
2014-Jul-10 06:33N 40°11' E 024°31'1212.4
2014-Jul-10 05:33N 39°59' E 024°33'1312.7
2014-Jul-10 04:33N 39°46' E 024°35'1313.0
2014-Jul-10 03:33N 39°33' E 024°38'2612.8
2014-Jul-10 01:31N 39°08' E 024°43'3913.1
2014-Jul-09 22:33N 38°29' E 024°45'4112.5
2014-Jul-09 19:16N 37°50' E 024°28'2413.0
2014-Jul-09 17:27N 37°32' E 024°09'1312.8
2014-Jul-09 16:26N 37°21' E 023°60'1312.6
2014-Jul-09 15:24N 37°10' E 023°51'1212.9
2014-Jul-09 14:26N 36°59' E 023°43'1413.0
2014-Jul-09 13:21N 36°47' E 023°34'2313.0
2014-Jul-09 11:33N 36°28' E 023°18'1111.0
2014-Jul-09 10:33N 36°23' E 023°05'1913.3
2014-Jul-09 09:08N 36°22' E 022°42'1012.8
2014-Jul-09 08:20N 36°20' E 022°30'34413.1
2014-Jul-08 06:08N 36°33' E 015°22'712.9
2014-Jul-08 05:34N 36°34' E 015°13'1313.1
2014-Jul-08 04:34N 36°34' E 014°57'1313.3
2014-Jul-08 03:33N 36°36' E 014°41'1312.6
2014-Jul-08 02:34N 36°37' E 014°25'1212.2
2014-Jul-08 01:34N 36°40' E 014°10'1212.3
2014-Jul-08 00:33N 36°43' E 013°55'1212.3
2014-Jul-07 23:34N 36°46' E 013°41'1212.0
2014-Jul-07 22:33N 36°49' E 013°26'1212.2
2014-Jul-07 21:33N 36°52' E 013°11'1212.2
2014-Jul-07 20:34N 36°54' E 012°56'1312.9
2014-Jul-07 19:33N 36°58' E 012°41'1313.0
2014-Jul-07 18:34N 37°01' E 012°25'1313.1
2014-Jul-07 17:34N 37°04' E 012°09'1313.0
2014-Jul-07 16:34N 37°08' E 011°53'1312.8
2014-Jul-07 15:33N 37°12' E 011°38'1312.8
2014-Jul-07 14:33N 37°17' E 011°23'1312.5
2014-Jul-07 13:33N 37°22' E 011°09'1312.5
2014-Jul-07 12:33N 37°25' E 010°53'1212.2
2014-Jul-07 11:34N 37°28' E 010°39'1212.1
2014-Jul-07 10:34N 37°31' E 010°24'1312.6
2014-Jul-07 09:33N 37°33' E 010°08'1313.0
2014-Jul-07 08:34N 37°30' E 009°52'1313.0
2014-Jul-07 07:33N 37°26' E 009°37'1312.8
2014-Jul-07 06:32N 37°21' E 009°21'1312.9
2014-Jul-07 05:33N 37°17' E 009°06'1412.8
2014-Jul-07 04:27N 37°12' E 008°50'2412.6
2014-Jul-07 02:33N 37°04' E 008°21'2911.9
2014-Jul-07 00:04N 36°54' E 007°47'1 1.2
2014-Jul-06 23:32N 36°54' E 007°46'0 0.0
2014-Jul-06 22:32N 36°54' E 007°46'0 0.0
2014-Jul-06 21:29N 36°54' E 007°46'0 0.0
2014-Jul-06 20:32N 36°54' E 007°46'0 0.0
2014-Jul-06 19:32N 36°54' E 007°46'0 0.0
2014-Jul-06 18:32N 36°54' E 007°46'0 0.0
2014-Jul-06 17:32N 36°54' E 007°46'0 0.0
2014-Jul-06 16:32N 36°54' E 007°46'0 0.0
2014-Jul-06 15:32N 36°54' E 007°46'0 0.0
2014-Jul-06 14:32N 36°54' E 007°46'0 0.0
2014-Jul-06 13:32N 36°54' E 007°46'0 0.0
2014-Jul-06 12:20N 36°54' E 007°46'0 0.0
2014-Jul-06 11:32N 36°54' E 007°46'0 0.0
2014-Jul-06 09:32N 36°54' E 007°46'0 0.0
2014-Jul-06 08:14N 36°54' E 007°46'0 0.0
2014-Jul-06 07:26N 36°54' E 007°46'0 0.0
2014-Jul-06 04:11N 36°54' E 007°46'0 0.0
2014-Jul-06 01:32N 36°54' E 007°46'0 0.0
2014-Jul-05 20:08N 36°54' E 007°46'0 0.0
2014-Jul-05 19:32N 36°54' E 007°46'0 0.0
2014-Jul-05 18:29N 36°54' E 007°46'0 0.0
2014-Jul-05 14:32N 36°54' E 007°46'0 0.0
2014-Jul-05 13:32N 36°54' E 007°46'0 0.0
2014-Jul-05 12:32N 36°54' E 007°46'0 0.0
2014-Jul-05 11:32N 36°54' E 007°46'0 0.0
2014-Jul-05 10:32N 36°54' E 007°46'0 0.0
2014-Jul-05 03:32N 36°54' E 007°46'0 0.0
2014-Jul-05 02:32N 36°54' E 007°46'0 0.0
2014-Jul-05 01:29N 36°54' E 007°46'0 0.0
2014-Jul-05 00:26N 36°54' E 007°46'0 0.0
2014-Jul-04 23:32N 36°54' E 007°46'0 0.0
2014-Jul-04 22:32N 36°54' E 007°46'0 0.0
2014-Jul-04 21:32N 36°54' E 007°46'0 0.0
2014-Jul-04 20:32N 36°54' E 007°46'0 0.0
2014-Jul-04 19:32N 36°54' E 007°46'0 0.0
2014-Jul-04 18:32N 36°54' E 007°46'0 0.0
2014-Jul-04 17:32N 36°54' E 007°46'0 0.0
2014-Jul-04 16:23N 36°54' E 007°46'0 0.0
2014-Jul-04 15:26N 36°54' E 007°46'0 0.0
2014-Jul-04 14:23N 36°54' E 007°46'0 0.0
2014-Jul-04 10:08N 36°54' E 007°46'0 0.0
2014-Jul-04 08:05N 36°54' E 007°46'63 9.3
2014-Jul-04 01:15N 37°18' E 008°60'810.9
2014-Jul-04 00:30N 37°21' E 009°09'1010.7
2014-Jul-03 23:33N 37°25' E 009°21'1111.1
2014-Jul-03 22:33N 37°29' E 009°34'1111.0
2014-Jul-03 21:33N 37°33' E 009°47'1110.9
2014-Jul-03 20:33N 37°38' E 009°59'1111.1
2014-Jul-03 19:33N 37°38' E 010°13'1211.7
2014-Jul-03 18:33N 37°36' E 010°28'1211.6
2014-Jul-03 17:33N 37°33' E 010°42'1211.7
2014-Jul-03 16:33N 37°30' E 010°56'1212.0
2014-Jul-03 15:33N 37°27' E 011°11'1212.2
2014-Jul-03 14:33N 37°21' E 011°24'1110.7
2014-Jul-03 13:33N 37°11' E 011°30'1212.2
2014-Jul-03 12:33N 36°59' E 011°30'1212.3
2014-Jul-03 11:33N 36°47' E 011°30'1212.3
2014-Jul-03 10:33N 36°34' E 011°30'1111.3
2014-Jul-03 09:33N 36°25' E 011°23'1211.9
2014-Jul-03 08:33N 36°16' E 011°13'1211.6
2014-Jul-03 07:33N 36°08' E 011°03'1311.8
2014-Jul-03 06:27N 35°58' E 010°52'1011.7
2014-Jul-03 05:33N 35°51' E 010°42'4 3.4
2014-Jul-03 04:31N 35°49' E 010°39'0 0.0
2014-Jul-03 03:31N 35°49' E 010°39'0 0.0
2014-Jul-03 02:31N 35°49' E 010°39'0 0.0
2014-Jul-03 01:31N 35°49' E 010°39'0 0.0
2014-Jul-03 00:31N 35°49' E 010°39'0 0.0
2014-Jul-02 23:31N 35°49' E 010°39'0 0.0
2014-Jul-02 22:31N 35°49' E 010°39'0 0.0
2014-Jul-02 21:31N 35°49' E 010°39'0 0.0
2014-Jul-02 20:31N 35°49' E 010°39'0 0.0
2014-Jul-02 19:31N 35°49' E 010°39'0 0.0
2014-Jul-02 18:31N 35°49' E 010°39'0 0.0
2014-Jul-02 17:31N 35°49' E 010°39'0 0.0
2014-Jul-02 16:25N 35°49' E 010°39'0 0.0
2014-Jul-02 15:31N 35°49' E 010°39'0 0.0
2014-Jul-02 14:31N 35°49' E 010°39'0 0.0
2014-Jul-02 13:31N 35°49' E 010°39'0 0.0
2014-Jul-02 12:31N 35°49' E 010°39'0 0.0
2014-Jul-02 11:31N 35°49' E 010°39'0 0.0
2014-Jul-02 10:31N 35°49' E 010°39'0 0.0
2014-Jul-02 09:28N 35°49' E 010°39'0 0.0
2014-Jul-02 08:31N 35°49' E 010°39'0 0.0
2014-Jul-02 07:31N 35°49' E 010°39'0 0.0
2014-Jul-02 06:31N 35°49' E 010°39'0 0.0
2014-Jul-02 05:31N 35°49' E 010°39'0 0.0
2014-Jul-02 04:31N 35°49' E 010°39'0 0.0
2014-Jul-02 03:31N 35°49' E 010°39'0 0.0
2014-Jul-02 02:31N 35°49' E 010°39'0 0.0
2014-Jul-02 01:28N 35°49' E 010°39'0 0.0
2014-Jul-02 00:25N 35°49' E 010°39'0 0.0
2014-Jul-01 23:31N 35°49' E 010°39'0 0.0
2014-Jul-01 22:16N 35°49' E 010°39'0 0.0
2014-Jul-01 21:28N 35°49' E 010°39'0 0.0
2014-Jul-01 20:31N 35°49' E 010°39'0 0.0
2014-Jul-01 19:31N 35°49' E 010°39'0 0.0
2014-Jul-01 18:31N 35°49' E 010°39'0 0.0
2014-Jul-01 17:31N 35°49' E 010°39'0 0.0
2014-Jul-01 16:31N 35°49' E 010°39'0 0.0
2014-Jul-01 15:28N 35°49' E 010°39'0 0.0
2014-Jul-01 14:13N 35°49' E 010°39'0 0.0
2014-Jul-01 13:07N 35°49' E 010°39'0 0.0
2014-Jul-01 12:28N 35°49' E 010°39'  
Track history (hours):
 
Tides Stations Pressure Air Temp Water Temp Dewpoint Dewpoint depression Visibility Wind Speed Wind Dir Waves Ship positions

Green Island

Last reported at 2014-Jul-11 07:32 UTC. Time now 2014-Jul-11 08:00 UTC.
Position N 40°56' E 024°29'.

Length 126 m; draft 7.7 m.

Type: Cargo ship. MMSI: 255790000.

Date/timePositionNaut miles runAvg speedWind from/ knotsBaromVisibWave heightAir tempDewpointWater temp
2014-Jul-11 07:32N 40°56' E 024°29'0 0.0
2014-Jul-11 06:29N 40°56' E 024°29'0 0.0
2014-Jul-11 05:32N 40°56' E 024°29'0 0.0
2014-Jul-11 04:32N 40°56' E 024°29'0 0.0
2014-Jul-11 03:32N 40°56' E 024°29'0 0.0
2014-Jul-11 02:32N 40°56' E 024°29'0 0.0
2014-Jul-11 01:32N 40°56' E 024°29'0 0.1
2014-Jul-11 00:32N 40°56' E 024°29'0 0.0
2014-Jul-10 23:32N 40°56' E 024°29'0 0.0
2014-Jul-10 22:32N 40°56' E 024°29'0 0.0
2014-Jul-10 21:32N 40°56' E 024°29'0 0.0
2014-Jul-10 20:32N 40°56' E 024°29'0 0.0
2014-Jul-10 19:32N 40°56' E 024°29'0 0.0
2014-Jul-10 18:32N 40°56' E 024°29'0 0.0
2014-Jul-10 17:32N 40°56' E 024°29'0 0.0
2014-Jul-10 16:32N 40°56' E 024°29'0 0.0
2014-Jul-10 15:32N 40°56' E 024°29'0 0.0
2014-Jul-10 14:32N 40°56' E 024°29'0 0.0
2014-Jul-10 13:32N 40°56' E 024°29'0 0.0
2014-Jul-10 12:32N 40°56' E 024°29'0 0.0
2014-Jul-10 11:32N 40°56' E 024°29'0 0.1
2014-Jul-10 10:29N 40°56' E 024°29'7 7.6
2014-Jul-10 09:33N 40°49' E 024°27'1312.9
2014-Jul-10 08:33N 40°36' E 024°26'1312.7
2014-Jul-10 07:30N 40°23' E 024°28'1212.8
2014-Jul-10 06:33N 40°11' E 024°31'1212.4
2014-Jul-10 05:33N 39°59' E 024°33'1312.7
2014-Jul-10 04:33N 39°46' E 024°35'1313.0
2014-Jul-10 03:33N 39°33' E 024°38'2612.8
2014-Jul-10 01:31N 39°08' E 024°43'3913.1
2014-Jul-09 22:33N 38°29' E 024°45'4112.5
2014-Jul-09 19:16N 37°50' E 024°28'2413.0
2014-Jul-09 17:27N 37°32' E 024°09'1312.8
2014-Jul-09 16:26N 37°21' E 023°60'1312.6
2014-Jul-09 15:24N 37°10' E 023°51'1212.9
2014-Jul-09 14:26N 36°59' E 023°43'1413.0
2014-Jul-09 13:21N 36°47' E 023°34'2313.0
2014-Jul-09 11:33N 36°28' E 023°18'1111.0
2014-Jul-09 10:33N 36°23' E 023°05'1913.3
2014-Jul-09 09:08N 36°22' E 022°42'1012.8
2014-Jul-09 08:20N 36°20' E 022°30'34413.1
2014-Jul-08 06:08N 36°33' E 015°22'712.9
2014-Jul-08 05:34N 36°34' E 015°13'1313.1
2014-Jul-08 04:34N 36°34' E 014°57'1313.3
2014-Jul-08 03:33N 36°36' E 014°41'1312.6
2014-Jul-08 02:34N 36°37' E 014°25'1212.2
2014-Jul-08 01:34N 36°40' E 014°10'1212.3
2014-Jul-08 00:33N 36°43' E 013°55'1212.3
2014-Jul-07 23:34N 36°46' E 013°41'1212.0
2014-Jul-07 22:33N 36°49' E 013°26'1212.2
2014-Jul-07 21:33N 36°52' E 013°11'1212.2
2014-Jul-07 20:34N 36°54' E 012°56'1312.9
2014-Jul-07 19:33N 36°58' E 012°41'1313.0
2014-Jul-07 18:34N 37°01' E 012°25'1313.1
2014-Jul-07 17:34N 37°04' E 012°09'1313.0
2014-Jul-07 16:34N 37°08' E 011°53'1312.8
2014-Jul-07 15:33N 37°12' E 011°38'1312.8
2014-Jul-07 14:33N 37°17' E 011°23'1312.5
2014-Jul-07 13:33N 37°22' E 011°09'1312.5
2014-Jul-07 12:33N 37°25' E 010°53'1212.2
2014-Jul-07 11:34N 37°28' E 010°39'1212.1
2014-Jul-07 10:34N 37°31' E 010°24'1312.6
2014-Jul-07 09:33N 37°33' E 010°08'1313.0
2014-Jul-07 08:34N 37°30' E 009°52'1313.0
2014-Jul-07 07:33N 37°26' E 009°37'1312.8
2014-Jul-07 06:32N 37°21' E 009°21'1312.9
2014-Jul-07 05:33N 37°17' E 009°06'1412.8
2014-Jul-07 04:27N 37°12' E 008°50'2412.6
2014-Jul-07 02:33N 37°04' E 008°21'2911.9
2014-Jul-07 00:04N 36°54' E 007°47'1 1.2
2014-Jul-06 23:32N 36°54' E 007°46'0 0.0
2014-Jul-06 22:32N 36°54' E 007°46'0 0.0
2014-Jul-06 21:29N 36°54' E 007°46'0 0.0
2014-Jul-06 20:32N 36°54' E 007°46'0 0.0
2014-Jul-06 19:32N 36°54' E 007°46'0 0.0
2014-Jul-06 18:32N 36°54' E 007°46'0 0.0
2014-Jul-06 17:32N 36°54' E 007°46'0 0.0
2014-Jul-06 16:32N 36°54' E 007°46'0 0.0
2014-Jul-06 15:32N 36°54' E 007°46'0 0.0
2014-Jul-06 14:32N 36°54' E 007°46'0 0.0
2014-Jul-06 13:32N 36°54' E 007°46'0 0.0
2014-Jul-06 12:20N 36°54' E 007°46'0 0.0
2014-Jul-06 11:32N 36°54' E 007°46'0 0.0
2014-Jul-06 09:32N 36°54' E 007°46'0 0.0
2014-Jul-06 08:14N 36°54' E 007°46'0 0.0
2014-Jul-06 07:26N 36°54' E 007°46'0 0.0
2014-Jul-06 04:11N 36°54' E 007°46'0 0.0
2014-Jul-06 01:32N 36°54' E 007°46'0 0.0
2014-Jul-05 20:08N 36°54' E 007°46'0 0.0
2014-Jul-05 19:32N 36°54' E 007°46'0 0.0
2014-Jul-05 18:29N 36°54' E 007°46'0 0.0
2014-Jul-05 14:32N 36°54' E 007°46'0 0.0
2014-Jul-05 13:32N 36°54' E 007°46'0 0.0
2014-Jul-05 12:32N 36°54' E 007°46'0 0.0
2014-Jul-05 11:32N 36°54' E 007°46'0 0.0
2014-Jul-05 10:32N 36°54' E 007°46'0 0.0
2014-Jul-05 03:32N 36°54' E 007°46'0 0.0
2014-Jul-05 02:32N 36°54' E 007°46'0 0.0
2014-Jul-05 01:29N 36°54' E 007°46'0 0.0
2014-Jul-05 00:26N 36°54' E 007°46'0 0.0
2014-Jul-04 23:32N 36°54' E 007°46'0 0.0
2014-Jul-04 22:32N 36°54' E 007°46'0 0.0
2014-Jul-04 21:32N 36°54' E 007°46'0 0.0
2014-Jul-04 20:32N 36°54' E 007°46'0 0.0
2014-Jul-04 19:32N 36°54' E 007°46'0 0.0
2014-Jul-04 18:32N 36°54' E 007°46'0 0.0
2014-Jul-04 17:32N 36°54' E 007°46'0 0.0
2014-Jul-04 16:23N 36°54' E 007°46'0 0.0
2014-Jul-04 15:26N 36°54' E 007°46'0 0.0
2014-Jul-04 14:23N 36°54' E 007°46'0 0.0
2014-Jul-04 10:08N 36°54' E 007°46'0 0.0
2014-Jul-04 08:05N 36°54' E 007°46'63 9.3
2014-Jul-04 01:15N 37°18' E 008°60'810.9
2014-Jul-04 00:30N 37°21' E 009°09'1010.7
2014-Jul-03 23:33N 37°25' E 009°21'1111.1
2014-Jul-03 22:33N 37°29' E 009°34'1111.0
2014-Jul-03 21:33N 37°33' E 009°47'1110.9
2014-Jul-03 20:33N 37°38' E 009°59'1111.1
2014-Jul-03 19:33N 37°38' E 010°13'1211.7
2014-Jul-03 18:33N 37°36' E 010°28'1211.6
2014-Jul-03 17:33N 37°33' E 010°42'1211.7
2014-Jul-03 16:33N 37°30' E 010°56'1212.0
2014-Jul-03 15:33N 37°27' E 011°11'1212.2
2014-Jul-03 14:33N 37°21' E 011°24'1110.7
2014-Jul-03 13:33N 37°11' E 011°30'1212.2
2014-Jul-03 12:33N 36°59' E 011°30'1212.3
2014-Jul-03 11:33N 36°47' E 011°30'1212.3
2014-Jul-03 10:33N 36°34' E 011°30'1111.3
2014-Jul-03 09:33N 36°25' E 011°23'1211.9
2014-Jul-03 08:33N 36°16' E 011°13'1211.6
2014-Jul-03 07:33N 36°08' E 011°03'1311.8
2014-Jul-03 06:27N 35°58' E 010°52'1011.7
2014-Jul-03 05:33N 35°51' E 010°42'4 3.4
2014-Jul-03 04:31N 35°49' E 010°39'0 0.0
2014-Jul-03 03:31N 35°49' E 010°39'0 0.0
2014-Jul-03 02:31N 35°49' E 010°39'0 0.0
2014-Jul-03 01:31N 35°49' E 010°39'0 0.0
2014-Jul-03 00:31N 35°49' E 010°39'0 0.0
2014-Jul-02 23:31N 35°49' E 010°39'0 0.0
2014-Jul-02 22:31N 35°49' E 010°39'0 0.0
2014-Jul-02 21:31N 35°49' E 010°39'0 0.0
2014-Jul-02 20:31N 35°49' E 010°39'0 0.0
2014-Jul-02 19:31N 35°49' E 010°39'0 0.0
2014-Jul-02 18:31N 35°49' E 010°39'0 0.0
2014-Jul-02 17:31N 35°49' E 010°39'0 0.0
2014-Jul-02 16:25N 35°49' E 010°39'0 0.0
2014-Jul-02 15:31N 35°49' E 010°39'0 0.0
2014-Jul-02 14:31N 35°49' E 010°39'0 0.0
2014-Jul-02 13:31N 35°49' E 010°39'0 0.0
2014-Jul-02 12:31N 35°49' E 010°39'0 0.0
2014-Jul-02 11:31N 35°49' E 010°39'0 0.0
2014-Jul-02 10:31N 35°49' E 010°39'0 0.0
2014-Jul-02 09:28N 35°49' E 010°39'0 0.0
2014-Jul-02 08:31N 35°49' E 010°39'0 0.0
2014-Jul-02 07:31N 35°49' E 010°39'0 0.0
2014-Jul-02 06:31N 35°49' E 010°39'0 0.0
2014-Jul-02 05:31N 35°49' E 010°39'0 0.0
2014-Jul-02 04:31N 35°49' E 010°39'0 0.0
2014-Jul-02 03:31N 35°49' E 010°39'0 0.0
2014-Jul-02 02:31N 35°49' E 010°39'0 0.0
2014-Jul-02 01:28N 35°49' E 010°39'0 0.0
2014-Jul-02 00:25N 35°49' E 010°39'0 0.0
2014-Jul-01 23:31N 35°49' E 010°39'0 0.0
2014-Jul-01 22:16N 35°49' E 010°39'0 0.0
2014-Jul-01 21:28N 35°49' E 010°39'0 0.0
2014-Jul-01 20:31N 35°49' E 010°39'0 0.0
2014-Jul-01 19:31N 35°49' E 010°39'0 0.0
2014-Jul-01 18:31N 35°49' E 010°39'0 0.0
2014-Jul-01 17:31N 35°49' E 010°39'0 0.0
2014-Jul-01 16:31N 35°49' E 010°39'0 0.0
2014-Jul-01 15:28N 35°49' E 010°39'0 0.0
2014-Jul-01 14:13N 35°49' E 010°39'0 0.0
2014-Jul-01 13:07N 35°49' E 010°39'0 0.0
2014-Jul-01 12:28N 35°49' E 010°39'  

Dump ship's entire track history